Skip to Main Content
SEARCH:
Location Air RH Dwp Precip Type Wind Speed Wind Gust Direction Pavement Temperature Date/Time
Hatem Bridge US 40 E/B 35 49 18 None 5 mph 7 mph SW 26 - 26 2/26/2017 11:47:00 PM
I-270 at I-370 36 55 21 None Calm Calm SE 36 - 39 2/26/2017 11:45:00 PM
I-270 at MD-109 27 81 22 None Calm Calm E 31 - 33 2/26/2017 11:45:00 PM
I-495 at American Legion Bridge 30 80 25 None Calm 4 mph NE 36 - 38 2/26/2017 11:40:00 PM
I-68 at MD-219 30 41 9 None 10 mph 14 mph SW 24 - 31 2/26/2017 11:45:00 PM
I-68 at Savage Mt 27 48 11 None Calm 6 mph W 28 - 28 2/26/2017 11:45:00 PM
I-68 at Sideling Hill 32 50 15 None Calm Calm N 34 - 34 2/26/2017 11:45:00 PM
I-68 at WV Line 30 45 11 None 4 mph 7 mph W 29 - 31 2/26/2017 11:45:00 PM
I-695 at I-83 27 71 19 None Calm Calm N 32 - 36 2/26/2017 11:45:00 PM
I-70 at Fred-Wash Co. 36 39 14 None Calm Calm N 30 - 30 2/26/2017 11:45:00 PM
I-70 at I-695 27 75 20 None Calm Calm SW 33 - 37 2/26/2017 11:45:00 PM
I-70 at I-81 29 64 19 None Calm Calm SW 34 - 34 2/26/2017 11:45:00 PM
I-70 at MD-27 32 57 19 None Calm Calm S 32 - 35 2/26/2017 11:45:00 PM
I-70 at MD-32 25 76 19 None Calm Calm SE 32 - 35 2/26/2017 11:45:00 PM
I-83 at MD-137 27 74 20 None Calm Calm N 34 - 34 2/26/2017 11:40:00 PM
I-895 at I-95 - - - No Data Available - - No Data Available -
I-95 at I-695 NE 32 65 22 None Calm Calm NE 33 - 36 2/26/2017 11:47:00 PM
I-95 at Patuxent River 31 75 24 None Calm 5 mph NE 34 - 37 2/26/2017 11:40:00 PM
I-95 at Tydings Bridge 32 71 24 None Calm 11 mph E 34 - 35 2/26/2017 11:45:00 PM
I-95/495 at I-295 43 41 21 None Calm 4 mph SE 39 - 46 2/26/2017 11:45:00 PM
I-97 at MD-100 30 71 22 None Calm Calm N 34 - 36 2/26/2017 11:45:00 PM
I-97 at MD-32 28 72 20 None 6 mph 7 mph N 35 - 37 2/26/2017 11:45:00 PM
MD 20 at MD 21 30 75 23 None Calm Calm SW 38 - 38 2/26/2017 11:45:00 PM
MD 231 at Patuxent River 32 83 27 None Calm Calm SW 38 - 39 2/26/2017 11:45:00 PM
MD 260 at Cox Rd 33 66 23 None Calm Calm N 41 - 41 2/26/2017 11:45:00 PM
MD-135 at Salt Dome 30 43 10 None 8 mph 16 mph W 30 - 30 2/26/2017 11:45:00 PM
MD-140 at MD-97 27 75 20 None Calm Calm SE 31 - 31 2/26/2017 11:45:00 PM
MD-200 EB at Bonifant Rd 28 76 21 None Calm Calm N 32 - 32 2/26/2017 11:47:00 PM
MD-200 WB at Muncaster Mill Rd 25 73 18 None Calm Calm SW 32 - 33 2/26/2017 11:47:00 PM
MD-213 at Sassafras River 33 72 25 None Calm Calm S 36 - 36 2/26/2017 11:45:00 PM
MD-24 at Rock St Park 26 83 22 None Calm Calm N 33 - 33 2/26/2017 11:45:00 PM
MD-30 at PA Line 35 45 16 None 4 mph 8 mph S 35 - 35 2/26/2017 11:45:00 PM
MD-301 at MD-305 27 76 21 None 4 mph 6 mph S 36 - 36 2/26/2017 11:45:00 PM
MD-33 at Knapps Narrows Drawbridge 39 72 31 None Calm 5 mph SW 42 - 42 2/26/2017 11:45:00 PM
MD-344 at MD-224 32 58 19 None Calm Calm E 39 - 39 2/26/2017 11:45:00 PM
MD-4 at Patuxent River 36 85 33 None - - No Data Available 39 - 42 2/26/2017 11:45:00 PM
MD-404 at Choptank River 30 80 25 None Calm Calm S 36 - 38 2/26/2017 11:45:00 PM
MD-43 at MD-150 31 71 23 None Calm Calm NW 34 - 38 2/26/2017 11:45:00 PM
MD-51 at Oldtown Salt Dome 22 80 17 None Calm Calm NE 36 - 36 2/26/2017 11:45:00 PM
MD-64 at MD-418 - - - No Data Available - - No Data Available -
US-1 at Baltimore / Harford Co. Line 27 80 22 None Calm Calm NW 32 - 35 2/26/2017 11:45:00 PM
US-1 at Conowingo Dam 31 74 24 None Calm Calm NE 39 - 39 2/26/2017 11:40:00 PM
US-13 at US-113 29 76 23 None Calm Calm S 39 - 40 2/26/2017 11:45:00 PM
US-13 at US-50 - - - No Data Available - - No Data Available -
US-15 at MD-140 23 81 19 None Calm Calm N 30 - 33 2/26/2017 11:45:00 PM
US-301 at MD-5 32 75 25 None Calm Calm S 38 - 40 2/26/2017 11:40:00 PM
US-301 at Potomac 36 72 28 None Calm 6 mph E 38 - 42 2/26/2017 11:45:00 PM
US-301 on HWN Bridge 41 64 30 None 10 mph 11 mph SE 36 - 36 2/26/2017 11:48:00 PM
US-340 at MD-180 24 80 19 None Calm Calm N 32 - 33 2/26/2017 11:45:00 PM
US-50 at Choptank 37 74 29 None 4 mph 7 mph S 38 - 40 2/26/2017 11:45:00 PM
US-50 at I-95 34 64 23 None Calm Calm NE 37 - 40 2/26/2017 11:40:00 PM
US-50 at MD-2 35 78 28 None Calm Calm SE 37 - 38 2/26/2017 11:45:00 PM
US-50 at MD-331 38 66 28 None Calm Calm S 38 - 39 2/26/2017 11:45:00 PM
US-50 at OC Drawbridge 37 52 22 None Calm Calm W 39 - 39 2/26/2017 11:45:00 PM
US-50 at Table Rock Rd 31 42 10 None Calm 10 mph S 32 - 32 2/26/2017 11:40:00 PM
US-50 Kent Narrow Bridge 38 79 32 None Calm 4 mph SE 40 - 40 2/26/2017 11:45:00 PM
WPL Pier 31 40 72 32 None Calm Calm NE 32 - 32 2/26/2017 11:47:00 PM
Location Air RH Dwp Precip Type Wind Speed Wind Gust Direction Pavement Temperature Date/Time